Latest Weather Observations for Lucas Heights

IDN60801

Issued at 2:05 am EST Tuesday 23 September 2014 (issued every 30 minutes, with the page automatically refreshed every 10 minutes)

About weather observations | Map of weather stations | Latest weather observations for NSW | Other Formats
Station Details ID: 066023 Name: LUCAS HEIGHTS AWS Lat: -34.05 Lon: 150.98 Height: 140.0 m
Data from the previous 72 hours. | See also: Recent months for locations in New South Wales
Date/Time
EST
Temp
°C
App
Temp
°C
Dew
Point
Rel
Hum
%
Delta-T
°C
Wind Press
QNH
hPa
Press
MSL
hPa
Rain
since 9 am
mm
Dir
 
Spd
km/h
Gust
km/h
Spd
kts
Gust
kts
23/01:45am 8.0 5.8 6.3 89 0.8 NW 7 9 4 5 1029.8 - 0.0
23/01:30am 8.2 5.7 6.5 89 0.8 NW 9 9 5 5 1029.9 - 0.0
23/01:15am 8.3 6.2 6.6 89 0.8 WNW 7 9 4 5 1030.0 - 0.0
23/01:00am 8.3 5.8 6.6 89 0.8 WNW 9 9 5 5 1030.1 - 0.0
23/12:45am 8.4 5.9 6.7 89 0.8 WNW 9 11 5 6 1030.2 - 0.0
23/12:30am 8.5 6.0 6.7 88 0.8 W 9 11 5 6 1030.3 - 0.0
23/12:15am 8.4 5.5 6.4 87 0.9 W 11 13 6 7 1030.3 - 0.0
23/12:00am 8.6 5.7 6.6 87 0.9 W 11 13 6 7 1030.4 - 0.0
 
Date/Time
EST
Temp
°C
App
Temp
°C
Dew
Point
Rel
Hum
%
Delta-T
°C
Wind Press
QNH
hPa
Press
MSL
hPa
Rain
since 9 am
mm
Dir
 
Spd
km/h
Gust
km/h
Spd
kts
Gust
kts
22/11:45pm 8.8 5.9 6.7 87 1.0 W 11 15 6 8 1030.4 - 0.0
22/11:30pm 9.2 6.4 7.1 87 1.0 W 11 13 6 7 1030.5 - 0.0
22/11:15pm 9.5 6.8 7.3 86 1.0 W 11 13 6 7 1030.5 - 0.0
22/11:00pm 9.6 7.3 7.4 86 1.1 W 9 13 5 7 1030.7 - 0.0
22/10:45pm 9.8 7.9 7.4 85 1.1 NW 7 9 4 5 1030.8 - 0.0
22/10:30pm 9.9 8.0 7.5 85 1.2 NW 7 9 4 5 1030.8 - 0.0
22/10:15pm 10.2 8.3 7.6 84 1.3 NW 7 9 4 5 1030.8 - 0.0
22/10:00pm 10.6 8.4 7.9 83 1.3 WNW 9 13 5 7 1030.8 - 0.0
22/09:45pm 10.9 8.4 8.0 82 1.4 NW 11 13 6 7 1030.8 - 0.0
22/09:30pm 11.2 8.7 8.1 81 1.5 NW 11 13 6 7 1030.8 - 0.0
22/09:15pm 11.6 9.5 8.4 81 1.6 NW 9 11 5 6 1030.7 - 0.0
22/09:00pm 11.7 10.0 8.4 80 1.6 N 7 9 4 5 1030.7 - 0.0
22/08:45pm 11.8 10.1 8.2 78 1.8 N 7 11 4 6 1030.6 - 0.0
22/08:30pm 12.3 10.2 8.3 76 2.0 NNE 9 13 5 7 1030.5 - 0.0
22/08:15pm 12.7 10.2 8.3 74 2.2 NE 11 13 6 7 1030.5 - 0.0
22/08:00pm 13.4 10.6 8.6 73 2.4 NNE 13 15 7 8 1030.4 - 0.0
22/07:45pm 13.8 10.7 8.9 72 2.5 NNE 15 19 8 10 1030.2 - 0.0
22/07:30pm 13.9 10.8 8.9 72 2.5 NNE 15 19 8 10 1030.0 - 0.0
22/07:15pm 14.0 11.3 8.8 71 2.6 NE 13 17 7 9 1029.9 - 0.0
22/07:00pm 14.1 11.4 8.8 70 2.7 NE 13 19 7 10 1029.8 - 0.0
22/06:45pm 14.2 11.8 8.6 69 2.8 NE 11 15 6 8 1029.6 - 0.0
22/06:30pm 14.7 12.0 8.8 68 3.0 ENE 13 19 7 10 1029.4 - 0.0
22/06:15pm 15.1 12.4 8.8 66 3.2 ENE 13 17 7 9 1029.1 - 0.0
22/06:00pm 15.5 12.4 8.8 64 3.4 ENE 15 22 8 12 1029.0 - 0.0
22/05:45pm 15.9 12.4 8.7 62 3.7 ENE 17 22 9 12 1028.9 - 0.0
22/05:30pm 16.6 13.1 8.8 60 4.0 ENE 17 22 9 12 1028.8 - 0.0
22/05:15pm 17.0 13.5 8.7 58 4.3 ENE 17 22 9 12 1028.8 - 0.0
22/05:00pm 17.3 13.4 8.8 57 4.4 ENE 19 22 10 12 1028.7 - 0.0
22/04:45pm 17.6 14.1 8.8 56 4.6 ENE 17 22 9 12 1028.7 - 0.0
22/04:30pm 17.8 14.3 8.8 55 4.7 NE 17 26 9 14 1028.6 - 0.0
22/04:15pm 17.9 14.0 8.5 54 4.9 NE 19 24 10 13 1028.6 - 0.0
22/04:00pm 18.5 14.6 8.8 53 5.1 NE 19 26 10 14 1028.6 - 0.0
22/03:45pm 18.5 15.0 8.9 53 5.0 NE 17 24 9 13 1028.7 - 0.0
22/03:30pm 18.7 14.9 8.9 53 5.1 NE 19 28 10 15 1028.8 - 0.0
22/03:15pm 19.0 15.2 9.2 53 5.2 NE 19 26 10 14 1028.8 - 0.0
22/03:00pm 18.8 15.0 9.2 53 5.1 NE 19 28 10 15 1028.7 - 0.0
22/02:45pm 18.8 14.9 9.3 54 5.0 NE 20 30 11 16 1028.7 - 0.0
22/02:30pm 18.8 15.4 9.2 53 5.1 E 17 26 9 14 1028.8 - 0.0
22/02:15pm 18.7 15.7 9.1 53 5.1 E 15 24 8 13 1028.9 - 0.0
22/02:00pm 18.9 15.4 8.8 52 5.3 E 17 26 9 14 1029.0 - 0.0
22/01:45pm 19.7 16.9 8.4 48 5.9 ENE 13 22 7 12 1029.1 - 0.0
22/01:30pm 19.4 17.2 7.8 47 6.0 N 9 17 5 9 1029.3 - 0.0
22/01:15pm 19.3 16.3 7.9 47 5.9 NE 13 26 7 14 1029.5 - 0.0
22/01:00pm 18.3 16.4 7.4 49 5.5 N 7 15 4 8 1029.8 - 0.0
22/12:45pm 18.3 16.1 7.7 50 5.4 N 9 15 5 8 1030.1 - 0.0
22/12:30pm 17.9 16.1 7.3 50 5.4 NW 6 9 3 5 1030.4 - 0.0
22/12:15pm 18.2 15.8 7.2 48 5.6 NW 9 17 5 9 1030.6 - 0.0
22/12:00pm 18.6 16.4 8.0 50 5.5 NNW 9 15 5 8 1030.8 - 0.0
22/11:45am 18.5 16.3 7.9 50 5.5 NNW 9 19 5 10 1031.1 - 0.0
22/11:30am 18.6 16.6 8.8 53 5.1 - 9 17 5 9 1031.4 - 0.0
22/11:15am 18.5 16.1 8.8 53 5.1 N 11 17 6 9 1031.6 - 0.0
22/11:00am 18.4 16.8 8.9 54 5.0 NE 7 13 4 7 1031.8 - 0.0
22/10:45am 18.1 16.2 9.2 56 4.7 NNE 9 15 5 8 1031.9 - 0.0
22/10:30am 17.4 15.7 9.8 61 4.0 NE 9 13 5 7 1032.1 - 0.0
22/10:15am 16.6 15.2 9.7 63 3.6 NE 7 11 4 6 1032.3 - 0.0
22/10:00am 16.2 14.7 9.0 62 3.7 ENE 7 13 4 7 1032.4 - 0.0
22/09:45am 16.2 14.6 8.8 61 3.8 ESE 7 9 4 5 1032.4 - 0.0
22/09:30am 16.5 15.3 9.6 63 3.6 S 6 9 3 5 1032.4 - 0.0
22/09:15am 15.6 14.2 8.9 64 3.5 ESE 6 13 3 7 1032.4 - 0.0
22/09:00am 15.6 14.1 9.2 65 3.3 E 7 11 4 6 1032.3 - 0.0
22/08:45am 15.8 14.7 10.0 68 3.1 ESE 6 11 3 6 1032.2 - 0.0
22/08:30am 15.8 14.8 10.9 72 2.6 SE 7 11 4 6 1032.2 - 0.0
22/08:15am 14.8 13.9 11.2 79 1.9 SSE 7 9 4 5 1032.2 - 0.0
22/08:00am 13.5 11.8 9.8 78 1.9 SSE 9 13 5 7 1032.2 - 0.0
22/07:45am 13.7 11.7 10.2 79 1.8 SSE 11 13 6 7 1032.1 - 0.0
22/07:30am 13.1 11.6 10.4 84 1.4 SSE 9 13 5 7 1031.9 - 0.0
22/07:15am 11.9 10.1 9.6 86 1.2 SSE 9 13 5 7 1031.8 - 0.0
22/07:00am 11.1 8.8 9.0 87 1.1 SSE 11 13 6 7 1031.7 - 0.0
22/06:45am 10.7 8.3 8.7 87 1.0 SSE 11 13 6 7 1031.5 - 0.0
22/06:30am 10.4 7.9 8.4 87 1.0 SSE 11 15 6 8 1031.2 - 0.0
22/06:15am 10.2 7.3 8.2 87 1.0 SSE 13 15 7 8 1031.0 - 0.0
22/06:00am 10.0 7.1 8.0 87 1.0 SSE 13 15 7 8 1030.8 - 0.0
22/05:45am 10.1 7.2 8.1 87 1.0 S 13 15 7 8 1030.7 - 0.0
22/05:30am 10.2 7.3 8.1 87 1.0 SSE 13 15 7 8 1030.5 - 0.0
22/05:15am 10.2 6.9 8.1 87 1.0 SSE 15 17 8 9 1030.3 - 0.0
22/05:00am 10.3 7.0 8.2 87 1.0 S 15 17 8 9 1030.2 - 0.0
22/04:45am 10.3 7.0 8.2 87 1.0 S 15 17 8 9 1030.1 - 0.0
22/04:30am 10.4 7.2 8.3 87 1.0 S 15 19 8 10 1030.0 - 0.0
22/04:15am 10.3 7.1 8.3 87 1.0 S 15 17 8 9 1030.0 - 0.0
22/04:00am 10.2 7.0 8.3 88 0.9 S 15 17 8 9 1030.0 - 0.0
22/03:45am 10.2 6.9 8.2 87 1.0 SSE 15 17 8 9 1029.9 - 0.0
22/03:30am 9.8 6.4 7.8 87 1.0 S 15 15 8 8 1029.9 - 0.0
22/03:15am 10.0 6.7 8.0 87 1.0 S 15 17 8 9 1029.9 - 0.0
22/03:00am 10.4 7.2 8.5 88 0.9 S 15 17 8 9 1029.9 - 0.0
22/02:45am 10.2 7.0 8.4 89 0.9 S 15 15 8 8 1030.0 - 0.0
22/02:30am 9.6 6.2 7.7 88 0.9 S 15 19 8 10 1030.0 - 0.0
22/02:15am 9.3 5.4 7.3 87 1.0 S 17 19 9 10 1030.0 - 0.0
22/02:00am 9.3 5.4 7.2 87 1.0 S 17 19 9 10 1030.1 - 0.0
22/01:45am 9.8 6.0 7.6 86 1.1 S 17 19 9 10 1030.2 - 0.0
22/01:30am 10.0 6.6 7.8 86 1.1 S 15 17 8 9 1030.4 - 0.0
22/01:15am 10.1 6.7 7.8 86 1.1 S 15 17 8 9 1030.6 - 0.0
22/01:00am 10.3 7.0 8.0 86 1.1 S 15 17 8 9 1030.7 - 0.0
22/12:45am 10.4 7.1 8.2 86 1.1 S 15 17 8 9 1030.9 - 0.0
22/12:30am 10.5 7.7 8.4 87 1.0 S 13 15 7 8 1031.0 - 0.0
22/12:15am 10.1 7.1 7.9 86 1.1 S 13 15 7 8 1031.0 - 0.0
22/12:00am 9.8 6.8 7.5 85 1.1 S 13 15 7 8 1031.1 - 0.0
 
Date/Time
EST
Temp
°C
App
Temp
°C
Dew
Point
Rel
Hum
%
Delta-T
°C
Wind Press
QNH
hPa
Press
MSL
hPa
Rain
since 9 am
mm
Dir
 
Spd
km/h
Gust
km/h
Spd
kts
Gust
kts
21/11:45pm 9.8 7.5 7.4 85 1.1 S 9 13 5 7 1031.1 - 0.0
21/11:30pm 9.9 7.6 7.3 84 1.2 S 9 11 5 6 1031.0 - 0.0
21/11:15pm 10.4 8.1 7.6 83 1.4 S 9 13 5 7 1031.1 - 0.0
21/11:00pm 11.0 8.1 8.0 82 1.5 S 13 15 7 8 1031.1 - 0.0
21/10:45pm 11.3 8.8 8.3 82 1.5 S 11 15 6 8 1031.3 - 0.0
21/10:30pm 11.5 8.7 8.4 81 1.5 S 13 13 7 7 1031.3 - 0.0
21/10:15pm 11.6 8.8 8.4 81 1.6 S 13 13 7 7 1031.4 - 0.0
21/10:00pm 11.9 9.1 8.4 79 1.7 S 13 15 7 8 1031.4 - 0.0
21/09:45pm 12.5 10.1 8.7 77 1.9 S 11 13 6 7 1031.4 - 0.0
21/09:30pm 12.9 10.6 9.0 77 2.0 S 11 13 6 7 1031.5 - 0.0
21/09:15pm 12.8 10.9 9.0 78 1.9 SSE 9 13 5 7 1031.5 - 0.0
21/09:00pm 12.8 10.9 8.9 77 2.0 SSE 9 11 5 6 1031.4 - 0.0
21/08:45pm 12.7 10.7 8.8 77 2.0 SSE 9 13 5 7 1031.3 - 0.0
21/08:30pm 12.9 10.9 8.7 75 2.1 ESE 9 13 5 7 1031.1 - 0.0
21/08:15pm 13.0 10.2 8.7 75 2.2 ESE 13 15 7 8 1030.8 - 0.0
21/08:00pm 12.9 10.1 8.4 74 2.3 SE 13 19 7 10 1030.6 - 0.0
21/07:45pm 12.9 9.6 8.1 72 2.4 SE 15 20 8 11 1030.2 - 0.0
21/07:30pm 12.9 10.0 8.1 72 2.4 SE 13 19 7 10 1030.0 - 0.0
21/07:15pm 13.0 10.0 7.9 71 2.5 SE 13 19 7 10 1029.7 - 0.0
21/07:00pm 13.2 10.3 8.0 71 2.6 SE 13 19 7 10 1029.2 - 0.0
21/06:45pm 13.4 10.1 8.0 70 2.7 ESE 15 19 8 10 1028.9 - 0.0
21/06:30pm 13.7 10.4 8.2 69 2.8 ESE 15 19 8 10 1028.7 - 0.0
21/06:15pm 13.9 10.3 8.2 68 2.9 ESE 17 22 9 12 1028.5 - 0.0
21/06:00pm 14.2 10.6 8.3 67 3.0 ESE 17 22 9 12 1028.3 - 0.0
21/05:45pm 14.5 10.3 8.2 66 3.2 ESE 20 28 11 15 1028.2 - 0.0
21/05:30pm 14.9 10.7 8.1 64 3.4 ESE 20 30 11 16 1028.0 - 0.0
21/05:15pm 15.1 10.1 8.1 63 3.5 ESE 24 30 13 16 1027.9 - 0.0
21/05:00pm 15.4 11.2 8.4 63 3.6 SE 20 28 11 15 1027.7 - 0.0
21/04:45pm 15.7 11.2 8.5 62 3.7 ESE 22 30 12 16 1027.7 - 0.0
21/04:30pm 15.8 10.9 8.5 62 3.7 ESE 24 30 13 16 1027.7 - 0.0
21/04:15pm 16.3 12.4 8.7 60 3.9 ESE 19 30 10 16 1027.6 - 0.0
21/04:00pm 16.5 12.6 8.8 60 4.0 ESE 19 26 10 14 1027.6 - 0.0
21/03:45pm 16.8 13.3 8.9 59 4.1 ESE 17 24 9 13 1027.5 - 0.0
21/03:30pm 17.0 13.5 8.9 59 4.2 ESE 17 26 9 14 1027.5 - 0.0
21/03:15pm 17.3 14.2 8.8 57 4.4 ESE 15 22 8 12 1027.5 - 0.0
21/03:00pm 17.7 14.7 9.4 58 4.4 E 15 20 8 11 1027.6 - 0.0
21/02:45pm 17.2 14.2 9.2 59 4.2 E 15 22 8 12 1027.7 - 0.0
21/02:30pm 16.9 13.4 8.6 58 4.3 ESE 17 26 9 14 1027.7 - 0.0
21/02:15pm 18.2 15.6 9.3 56 4.7 ESE 13 30 7 16 1027.7 - 0.0
21/02:00pm 18.2 15.6 9.2 55 4.7 ENE 13 19 7 10 1027.9 - 0.0
21/01:45pm 18.1 15.4 8.9 55 4.8 NE 13 24 7 13 1028.1 - 0.0
21/01:30pm 18.1 16.7 9.0 55 4.8 SE 6 13 3 7 1028.3 - 0.0
21/01:15pm 17.6 15.9 8.3 54 4.8 NNE 7 11 4 6 1028.5 - 0.0
21/01:00pm 17.8 15.4 8.6 55 4.8 E 11 19 6 10 1028.8 - 0.0
21/12:45pm 17.6 16.0 8.7 56 4.6 ESE 7 17 4 9 1029.1 - 0.0
21/12:30pm 17.5 14.9 7.9 53 4.9 SE 11 20 6 11 1029.3 - 0.0
21/12:15pm 17.8 15.7 8.1 53 5.0 SE 9 17 5 9 1029.5 - 0.0
21/12:00pm 17.8 15.7 8.1 53 5.0 ESE 9 17 5 9 1029.8 - 0.0
21/11:45am 17.6 15.0 7.7 52 5.0 ESE 11 19 6 10 1029.9 - 0.0
21/11:30am 17.7 14.7 7.8 52 5.1 SSE 13 19 7 10 1030.2 - 0.0
21/11:15am 17.1 14.1 7.6 53 4.8 ESE 13 20 7 11 1030.4 - 0.0
21/11:00am 16.9 13.8 7.4 53 4.8 SSE 13 19 7 10 1030.7 - 0.0
21/10:45am 17.5 14.7 8.6 56 4.6 SSE 13 22 7 12 1030.7 - 0.0
21/10:30am 16.3 13.4 8.2 58 4.1 S 13 22 7 12 1030.8 - 0.0
21/10:15am 16.4 14.4 8.6 60 4.0 S 9 19 5 10 1030.9 - 0.0
21/10:00am 15.9 13.2 8.9 63 3.6 S 13 20 7 11 1030.8 - 0.0
21/09:45am 15.5 12.1 9.0 65 3.4 S 17 22 9 12 1030.8 - 0.0
21/09:30am 15.3 12.0 9.5 68 3.0 S 17 24 9 13 1030.7 - 0.0
21/09:15am 14.8 11.1 9.3 69 2.8 S 19 26 10 14 1030.7 - 0.0
21/09:00am 14.5 10.7 9.2 70 2.7 S 19 28 10 15 1030.6 - 0.0
21/08:45am 14.3 11.3 9.4 72 2.5 S 15 22 8 12 1030.5 - 0.0
21/08:30am 13.9 11.6 9.0 72 2.5 S 11 19 6 10 1030.3 - 0.0
21/08:15am 14.1 11.4 9.0 71 2.6 S 13 19 7 10 1030.0 - 0.0
21/08:00am 13.8 11.2 9.3 74 2.3 S 13 19 7 10 1029.8 - 0.0
21/07:45am 12.8 10.1 8.8 76 2.0 SSW 13 19 7 10 1029.8 - 0.0
21/07:30am 11.9 9.5 8.6 80 1.6 SSW 11 19 6 10 1029.6 - 0.0
21/07:15am 11.3 8.1 8.4 82 1.4 SSW 15 20 8 11 1029.3 - 0.0
21/07:00am 10.4 7.1 8.0 85 1.2 SSW 15 20 8 11 1029.0 - 0.0
21/06:45am 9.5 6.4 7.2 85 1.1 SSW 13 15 7 8 1028.9 - 0.0
21/06:30am 8.8 4.8 6.5 85 1.1 SW 17 22 9 12 1028.6 - 0.0
21/06:15am 8.8 4.7 6.3 84 1.2 SW 17 20 9 11 1028.5 - 0.0
21/06:00am 9.0 5.0 6.5 84 1.2 SW 17 20 9 11 1028.3 - 0.0
21/05:45am 9.1 4.7 6.6 84 1.2 SW 19 22 10 12 1028.2 - 0.0
21/05:30am 9.1 4.7 6.6 84 1.2 SW 19 22 10 12 1028.1 - 0.0
21/05:15am 9.1 4.7 6.6 84 1.2 SW 19 22 10 12 1028.0 - 0.0
21/05:00am 9.1 4.5 6.6 84 1.2 SW 20 22 11 12 1027.9 - 0.0
21/04:45am 9.2 5.2 6.7 84 1.2 SW 17 20 9 11 1027.8 - 0.0
21/04:30am 9.2 4.8 6.7 84 1.2 SW 19 22 10 12 1027.6 - 0.0
21/04:15am 9.1 4.5 6.7 85 1.1 SW 20 24 11 13 1027.5 - 0.0
21/04:00am 8.8 3.8 6.3 84 1.2 SW 22 24 12 13 1027.5 - 0.0
21/03:45am 8.8 4.3 6.3 84 1.2 SW 19 22 10 12 1027.4 - 0.0
21/03:30am 9.2 4.2 6.6 84 1.2 SW 22 26 12 14 1027.4 - 0.0
21/03:15am 9.1 4.1 6.5 84 1.2 SW 22 26 12 14 1027.5 - 0.0
21/03:00am 9.2 4.6 6.7 84 1.2 SW 20 24 11 13 1027.6 - 0.0
21/02:45am 9.2 4.6 6.7 84 1.2 SW 20 24 11 13 1027.8 - 0.0
21/02:30am 9.4 5.5 7.0 85 1.1 WSW 17 20 9 11 1027.9 - 0.0
21/02:15am 9.2 5.6 6.9 85 1.1 SW 15 17 8 9 1027.9 - 0.0
21/02:00am 9.2 6.4 7.0 86 1.0 SSW 11 15 6 8 1027.9 - 0.0
21/01:45am 8.9 6.0 6.6 85 1.1 SSW 11 13 6 7 1028.0 - 0.0
21/01:30am 9.1 5.8 6.6 84 1.2 S 13 15 7 8 1028.1 - 0.0
21/01:15am 9.1 5.8 6.2 82 1.3 S 13 15 7 8 1028.2 - 0.0
21/01:00am 9.9 7.1 6.8 81 1.5 SSW 11 13 6 7 1028.3 - 0.0
21/12:45am 10.6 7.9 7.5 81 1.5 SSW 11 13 6 7 1028.3 - 0.0
21/12:30am 10.8 7.8 7.7 81 1.5 SSW 13 15 7 8 1028.4 - 0.0
21/12:15am 10.7 7.6 7.4 80 1.6 SSW 13 15 7 8 1028.4 - 0.0
21/12:00am 10.5 7.0 7.1 79 1.6 SSW 15 19 8 10 1028.4 - 0.0
 
Date/Time
EST
Temp
°C
App
Temp
°C
Dew
Point
Rel
Hum
%
Delta-T
°C
Wind Press
QNH
hPa
Press
MSL
hPa
Rain
since 9 am
mm
Dir
 
Spd
km/h
Gust
km/h
Spd
kts
Gust
kts
20/11:45pm 10.7 7.6 7.2 79 1.7 SSW 13 15 7 8 1028.3 - 0.0
20/11:30pm 10.7 7.6 7.2 79 1.7 SSW 13 15 7 8 1028.3 - 0.0
20/11:15pm 10.6 7.8 7.1 79 1.7 SSW 11 13 6 7 1028.3 - 0.0
20/11:00pm 10.4 7.6 6.9 79 1.7 SSW 11 15 6 8 1028.4 - 0.0
20/10:45pm 10.6 7.4 6.7 77 1.9 SSW 13 17 7 9 1028.4 - 0.0
20/10:30pm 11.1 8.0 7.1 76 1.9 SSW 13 17 7 9 1028.4 - 0.0
20/10:15pm 11.1 7.2 7.0 76 2.0 SW 17 19 9 10 1028.4 - 0.0
20/10:00pm 11.1 7.1 6.8 75 2.1 SW 17 20 9 11 1028.3 - 0.0
20/09:45pm 11.6 8.1 7.2 74 2.1 SW 15 19 8 10 1028.3 - 0.0
20/09:30pm 11.8 9.1 7.3 74 2.2 SSW 11 15 6 8 1028.2 - 0.0
20/09:15pm 11.9 9.2 7.2 73 2.3 SW 11 13 6 7 1028.1 - 0.0
20/09:00pm 12.0 9.7 7.4 73 2.2 SW 9 13 5 7 1027.9 - 0.0
20/08:45pm 12.2 10.3 7.6 73 2.3 SW 7 11 4 6 1027.8 - 0.0
20/08:30pm 12.0 10.3 7.5 74 2.2 SSW 6 9 3 5 1027.6 - 0.0
20/08:15pm 11.8 10.0 7.3 74 2.2 S 6 11 3 6 1027.3 - 0.0
20/08:00pm 11.7 9.3 6.9 72 2.3 S 9 13 5 7 1027.2 - 0.0
20/07:45pm 12.0 9.2 7.0 71 2.4 SSE 11 17 6 9 1027.0 - 0.0
20/07:30pm 12.3 9.5 7.1 70 2.5 SSE 11 17 6 9 1026.8 - 0.0
20/07:15pm 12.6 9.9 7.3 70 2.6 SSE 11 17 6 9 1026.6 - 0.0
20/07:00pm 12.7 10.0 7.3 69 2.6 SE 11 15 6 8 1026.4 - 0.0
20/06:45pm 12.8 9.7 7.3 69 2.7 SSE 13 19 7 10 1026.0 - 0.0
20/06:30pm 13.1 10.0 7.3 68 2.8 SSE 13 19 7 10 1025.9 - 0.0
20/06:15pm 13.3 10.2 7.3 67 2.9 SSE 13 22 7 12 1025.6 - 0.0
20/06:00pm 13.6 10.5 7.2 65 3.1 SE 13 20 7 11 1025.4 - 0.0
20/05:45pm 13.9 10.0 7.2 64 3.3 SSE 17 32 9 17 1025.2 - 0.0
20/05:30pm 14.3 10.4 7.3 63 3.5 SSE 17 30 9 16 1024.9 - 0.0
20/05:15pm 14.6 10.4 7.3 61 3.6 SSE 19 32 10 17 1024.6 - 0.0
20/05:00pm 14.8 10.4 7.2 60 3.8 SSE 20 33 11 18 1024.4 - 0.0
20/04:45pm 15.1 10.8 6.9 58 4.0 SE 19 32 10 17 1024.3 - 0.0
20/04:30pm 15.3 10.3 6.5 55 4.3 SE 22 33 12 18 1024.2 - 0.0
20/04:15pm 15.2 9.8 6.5 56 4.3 SE 24 37 13 20 1024.1 - 0.0
20/04:00pm 15.3 9.9 6.2 54 4.4 SE 24 35 13 19 1024.0 - 0.0
20/03:45pm 15.6 10.6 6.5 54 4.5 SE 22 33 12 18 1023.9 - 0.0
20/03:30pm 15.7 10.4 6.7 55 4.4 SE 24 33 13 18 1023.7 - 0.0
20/03:15pm 15.6 9.9 6.5 54 4.5 SE 26 41 14 22 1023.8 - 0.0
20/03:00pm 15.8 10.8 6.6 54 4.5 SE 22 33 12 18 1023.8 - 0.0
20/02:45pm 16.2 11.3 6.9 54 4.6 SE 22 39 12 21 1023.7 - 0.0
20/02:30pm 16.3 11.8 7.1 54 4.6 SE 20 32 11 17 1023.7 - 0.0
20/02:15pm 16.4 11.6 7.2 54 4.6 SSE 22 33 12 18 1023.7 - 0.0
20/02:00pm 16.2 11.8 7.4 56 4.4 SE 20 30 11 16 1023.8 - 0.0
20/01:45pm 15.8 11.3 7.0 56 4.4 SE 20 30 11 16 1023.8 - 0.0
20/01:30pm 16.2 11.7 7.1 55 4.5 SE 20 33 11 18 1023.9 - 0.0
20/01:15pm 16.4 12.1 7.1 54 4.6 SE 19 32 10 17 1023.9 - 0.0
20/01:00pm 16.5 12.2 7.1 53 4.7 SE 19 30 10 16 1024.0 - 0.0
20/12:45pm 16.5 12.2 6.8 52 4.8 SE 19 28 10 15 1024.0 - 0.0
20/12:30pm 16.4 12.4 6.7 52 4.8 SSE 17 26 9 14 1024.0 - 0.0
20/12:15pm 16.5 12.9 6.8 52 4.8 SSE 15 26 8 14 1024.2 - 0.0
20/12:00pm 16.5 12.6 7.1 53 4.7 SSE 17 26 9 14 1024.3 - 0.0
20/11:45am 16.1 12.2 7.1 55 4.5 SE 17 26 9 14 1024.5 - 0.0
20/11:30am 16.1 11.9 7.3 56 4.4 SSE 19 30 10 16 1024.6 - 0.0
20/11:15am 16.0 11.6 7.2 56 4.4 SE 20 33 11 18 1024.7 - 0.0
20/11:00am 15.8 10.9 7.1 56 4.3 SSE 22 32 12 17 1024.7 - 0.0
20/10:45am 15.8 11.4 7.2 56 4.3 SSE 20 32 11 17 1024.8 - 0.0
20/10:30am 15.9 11.6 7.8 58 4.1 SSE 20 32 11 17 1024.9 - 0.0
20/10:15am 15.3 9.8 7.4 59 3.9 SSE 26 35 14 19 1024.9 - 0.0
20/10:00am 15.6 10.5 7.8 59 3.9 SSE 24 39 13 21 1024.8 - 0.0
20/09:45am 16.0 12.0 8.1 59 4.0 SSE 19 30 10 16 1024.8 - 0.0
20/09:30am 15.7 11.4 7.8 59 4.0 SSE 20 35 11 19 1024.8 - 0.0
20/09:15am 15.4 10.5 6.9 57 4.2 SSE 22 32 12 17 1024.6 - 0.0
20/09:00am 15.4 10.9 6.0 53 4.6 SSE 19 28 10 15 1024.5 - 0.0
20/08:45am 15.3 11.6 6.1 54 4.5 SE 15 26 8 14 1024.3 - 0.0
20/08:30am 14.7 11.4 6.3 57 4.1 SSE 13 19 7 10 1024.1 - 0.0
20/08:15am 13.9 10.5 5.9 58 3.8 SSE 13 20 7 11 1023.9 - 0.0
20/08:00am 13.2 9.1 6.2 62 3.4 SSE 17 20 9 11 1023.9 - 0.0
20/07:45am 11.7 7.4 6.8 72 2.4 S 19 22 10 12 1023.7 - 0.0
20/07:30am 9.3 4.6 6.1 80 1.5 S 20 22 11 12 1023.6 - 0.0
20/07:15am 7.7 2.8 4.9 82 1.2 S 20 22 11 12 1023.3 - 0.0
20/07:00am 6.5 1.5 3.8 83 1.2 S 19 22 10 12 1023.1 - 0.0
20/06:45am 6.4 1.8 3.5 82 1.2 S 17 19 9 10 1022.9 - 0.0
20/06:30am 6.4 2.9 3.5 82 1.2 S 11 15 6 8 1022.6 - 0.0
20/06:15am 6.0 2.1 3.3 83 1.1 SSW 13 15 7 8 1022.3 - 0.0
20/06:00am 6.3 1.7 3.8 84 1.1 SSW 17 22 9 12 1022.1 - 0.0
20/05:45am 5.5 0.4 3.0 84 1.0 SW 19 24 10 13 1021.9 - 0.0
20/05:30am 5.7 0.6 2.9 82 1.2 SSW 19 24 10 13 1021.6 - 0.0
20/05:15am 6.4 1.8 3.6 82 1.2 SSW 17 20 9 11 1021.5 - 0.0
20/05:00am 6.9 2.4 4.3 83 1.1 SW 17 20 9 11 1021.2 - 0.0
20/04:45am 6.0 0.9 3.3 83 1.1 SW 19 19 10 10 1021.2 - 0.0
20/04:30am 5.6 0.4 2.7 81 1.2 SW 19 19 10 10 1021.0 - 0.0
20/04:15am 6.0 1.2 2.4 78 1.5 SW 17 19 9 10 1020.9 - 0.0
20/04:00am 7.7 2.7 3.4 74 1.8 WSW 19 22 10 12 1020.8 - 0.0
20/03:45am 8.4 3.6 4.5 76 1.7 WSW 19 20 10 11 1020.8 - 0.0
20/03:30am 7.2 2.2 3.5 77 1.6 WSW 19 22 10 12 1020.9 - 0.0
20/03:15am 7.8 3.3 4.1 77 1.6 WSW 17 20 9 11 1020.9 - 0.0
20/03:00am 7.2 2.3 3.9 79 1.4 WSW 19 19 10 10 1021.0 - 0.0
20/02:45am 7.1 2.6 4.4 83 1.2 WSW 17 19 9 10 1021.1 - 0.0
20/02:30am 6.0 1.4 3.5 84 1.1 WSW 17 19 9 10 1021.2 - 0.0
20/02:15am 6.0 1.4 3.8 86 0.9 WSW 17 19 9 10 1021.3 - 0.0

Other Formats:

Comma delimited format used in spreadsheet applications
http://www.bom.gov.au/fwo/IDN60801/IDN60801.95757.axf

JavaScript Object Notation format (JSON) in row-major order
http://www.bom.gov.au/fwo/IDN60801/IDN60801.95757.json